Time;durP1;ratioP1;P1;durP2;ratioP2;P2;SDS_P1;SDS_P2;PMS_P1;PMS_P2;Temp;Humidity;BMP_temperature;BMP_pressure;BME280_temperature;BME280_humidity;BME280_pressure;Samples;Min_cycle;Max_cycle;Signal;HPM_P1;HPM_P2
2023/04/13 00:01:22;;;;;;;13.43;7.40;;;;;;;1.56;100.00;92406.78;5047609;28;20118;-70
2023/04/13 00:03:48;;;;;;;13.30;7.20;;;;;;;1.51;100.00;92404.81;5047803;28;20044;-69
2023/04/13 00:06:15;;;;;;;12.32;7.10;;;;;;;1.51;100.00;92404.00;5047800;28;20669;-70
2023/04/13 00:08:43;;;;;;;12.32;6.38;;;;;;;1.48;100.00;92409.44;5047821;28;20130;-70
2023/04/13 00:11:11;;;;;;;9.48;5.80;;;;;;;1.46;100.00;92402.81;5048060;28;20045;-71
2023/04/13 00:13:41;;;;;;;10.82;5.53;;;;;;;1.50;100.00;92402.44;5047064;28;20045;-70
2023/04/13 00:16:09;;;;;;;12.55;5.68;;;;;;;1.57;100.00;92404.09;5046954;28;20045;-70
2023/04/13 00:18:36;;;;;;;10.60;5.55;;;;;;;1.50;100.00;92394.84;5047690;28;20051;-70
2023/04/13 00:21:02;;;;;;;12.45;6.18;;;;;;;1.53;100.00;92409.69;5047461;28;20056;-70
2023/04/13 00:23:30;;;;;;;13.18;7.00;;;;;;;1.50;100.00;92417.63;5047078;28;20053;-70
2023/04/13 00:26:00;;;;;;;12.60;6.97;;;;;;;1.49;100.00;92423.66;5047600;28;20040;-70
2023/04/13 00:28:27;;;;;;;20.70;11.95;;;;;;;1.38;100.00;92412.22;5047340;28;20406;-70
2023/04/13 00:30:53;;;;;;;21.65;11.50;;;;;;;1.38;100.00;92404.63;5046947;28;20049;-71
2023/04/13 00:33:20;;;;;;;21.98;12.18;;;;;;;1.27;100.00;92404.09;5047152;28;20049;-71
2023/04/13 00:35:47;;;;;;;27.80;15.32;;;;;;;1.22;100.00;92403.81;5047026;28;20045;-71
2023/04/13 00:38:13;;;;;;;24.55;14.68;;;;;;;1.15;100.00;92410.53;5047335;28;20051;-71
2023/04/13 00:40:40;;;;;;;19.25;10.70;;;;;;;1.05;100.00;92405.69;5046960;28;20095;-71
2023/04/13 00:43:08;;;;;;;15.50;9.02;;;;;;;1.01;100.00;92406.97;5045369;28;20095;-71
2023/04/13 00:45:37;;;;;;;12.07;6.78;;;;;;;0.97;100.00;92401.50;5047359;28;20049;-72
2023/04/13 00:48:05;;;;;;;11.00;6.13;;;;;;;0.92;100.00;92402.00;5048208;28;20045;-71
2023/04/13 00:50:33;;;;;;;12.80;5.72;;;;;;;0.84;100.00;92391.19;5048140;28;20053;-71
2023/04/13 00:53:00;;;;;;;10.63;6.35;;;;;;;0.87;100.00;92388.28;5048092;28;20126;-71
2023/04/13 00:55:27;;;;;;;11.30;6.47;;;;;;;0.90;100.00;92393.03;5047919;28;20056;-71
2023/04/13 00:57:56;;;;;;;12.80;7.38;;;;;;;0.93;100.00;92390.94;5047753;28;20053;-71
2023/04/13 01:00:26;;;;;;;14.98;8.40;;;;;;;0.98;100.00;92392.16;5047883;28;20056;-71
2023/04/13 01:02:53;;;;;;;15.05;8.25;;;;;;;0.99;100.00;92391.22;5047876;28;20049;-71
2023/04/13 01:05:20;;;;;;;17.52;8.52;;;;;;;1.04;100.00;92396.53;5047993;28;20053;-71
2023/04/13 01:08:07;;;;;;;11.35;7.10;;;;;;;1.10;100.00;92400.13;5047085;28;20049;-71
2023/04/13 01:10:39;;;;;;;12.35;7.35;;;;;;;1.12;100.00;92396.47;5047488;28;20601;-71
2023/04/13 01:13:12;;;;;;;13.18;7.95;;;;;;;1.09;100.00;92401.88;5047615;28;20053;-71
2023/04/13 01:15:46;;;;;;;14.38;8.43;;;;;;;1.02;100.00;92399.22;5047539;28;20049;-71
2023/04/13 01:18:15;;;;;;;16.45;10.45;;;;;;;1.00;100.00;92408.75;5047903;28;20063;-70
2023/04/13 01:20:45;;;;;;;15.75;8.68;;;;;;;0.96;100.00;92404.22;5047334;28;20549;-71
2023/04/13 01:23:26;;;;;;;16.83;10.35;;;;;;;0.92;100.00;92402.00;5047703;28;20094;-71
2023/04/13 01:25:59;;;;;;;18.67;10.05;;;;;;;0.91;100.00;92407.22;5047728;28;20102;-70
2023/04/13 01:28:28;;;;;;;16.80;9.57;;;;;;;0.89;100.00;92399.03;5047220;28;20041;-70
2023/04/13 01:30:59;;;;;;;15.93;9.82;;;;;;;0.88;100.00;92403.28;5047519;28;20485;-70
2023/04/13 01:33:29;;;;;;;18.10;10.02;;;;;;;0.86;100.00;92401.91;5047213;28;20072;-70
2023/04/13 01:35:56;;;;;;;14.60;8.63;;;;;;;0.85;100.00;92400.31;5047843;28;20115;-70
2023/04/13 01:38:24;;;;;;;12.73;7.97;;;;;;;0.84;100.00;92401.28;5047169;28;20662;-70
2023/04/13 01:40:51;;;;;;;15.70;7.40;;;;;;;0.76;100.00;92395.34;5047191;28;20049;-71
2023/04/13 01:43:19;;;;;;;14.10;8.00;;;;;;;0.62;100.00;92398.59;5046911;28;20126;-71
2023/04/13 01:45:53;;;;;;;13.38;7.93;;;;;;;0.58;100.00;92398.16;5047152;28;20053;-71
2023/04/13 01:48:26;;;;;;;13.88;7.80;;;;;;;0.53;100.00;92392.81;5047528;28;20565;-71
2023/04/13 01:50:57;;;;;;;16.67;8.23;;;;;;;0.47;100.00;92379.09;5047454;28;20056;-71
2023/04/13 01:53:30;;;;;;;19.75;10.80;;;;;;;0.51;100.00;92384.63;5047116;28;20049;-71
2023/04/13 01:55:59;;;;;;;19.10;10.35;;;;;;;0.47;100.00;92383.38;5047019;28;20045;-70
2023/04/13 01:58:28;;;;;;;25.23;12.60;;;;;;;0.47;100.00;92401.84;5046943;28;20056;-71
2023/04/13 02:00:56;;;;;;;24.00;12.60;;;;;;;0.46;100.00;92402.81;5047288;28;20045;-70
2023/04/13 02:03:22;;;;;;;26.38;13.23;;;;;;;0.45;100.00;92408.81;5047633;28;20114;-70
2023/04/13 02:05:50;;;;;;;41.53;15.93;;;;;;;0.35;100.00;92416.63;5047475;28;20119;-71
2023/04/13 02:08:19;;;;;;;31.35;15.23;;;;;;;0.15;100.00;92416.25;5047397;28;20049;-70
2023/04/13 02:10:46;;;;;;;23.65;12.50;;;;;;;0.01;100.00;92416.94;5047268;28;20045;-70
2023/04/13 02:13:15;;;;;;;17.95;10.02;;;;;;;-0.16;100.00;92411.97;5046723;28;20049;-70
2023/04/13 02:15:42;;;;;;;22.55;11.48;;;;;;;-0.17;100.00;92406.16;5046914;28;20543;-71
2023/04/13 02:18:10;;;;;;;20.15;10.38;;;;;;;-0.24;100.00;92417.81;5046769;28;20056;-70
2023/04/13 02:20:42;;;;;;;22.45;12.60;;;;;;;-0.32;100.00;92406.03;5049663;28;20063;-70
2023/04/13 02:23:10;;;;;;;29.27;14.77;;;;;;;-0.62;100.00;92379.78;5050991;28;20135;-70
2023/04/13 02:25:37;;;;;;;22.65;13.00;;;;;;;-0.41;100.00;92410.31;5050987;28;20053;-70
2023/04/13 02:28:04;;;;;;;18.80;10.38;;;;;;;-0.42;100.00;92418.84;5050533;28;20041;-70
2023/04/13 02:30:31;;;;;;;13.95;7.70;;;;;;;-0.38;100.00;92416.75;5050808;28;20048;-70
2023/04/13 02:32:58;;;;;;;14.30;7.18;;;;;;;-0.47;100.00;92413.47;5050928;28;20103;-70
2023/04/13 02:35:26;;;;;;;10.75;6.70;;;;;;;-0.23;100.00;92419.41;5050262;28;20493;-70
2023/04/13 02:37:53;;;;;;;15.15;8.65;;;;;;;-0.02;100.00;92423.91;5050698;28;20048;-70
2023/04/13 02:40:19;;;;;;;18.00;9.48;;;;;;;0.08;100.00;92420.38;5050388;28;20053;-70
2023/04/13 02:42:47;;;;;;;13.15;7.18;;;;;;;0.11;100.00;92415.00;5050459;28;20049;-70
2023/04/13 02:45:16;;;;;;;13.45;6.72;;;;;;;0.22;100.00;92417.16;5050454;28;20132;-71
2023/04/13 02:47:43;;;;;;;8.88;5.43;;;;;;;0.24;100.00;92412.72;5050394;28;20052;-71
2023/04/13 02:50:11;;;;;;;8.38;5.60;;;;;;;0.22;100.00;92418.88;5050400;28;20052;-71
2023/04/13 02:52:39;;;;;;;8.70;5.47;;;;;;;0.20;100.00;92411.50;5050497;28;20052;-71
2023/04/13 02:55:07;;;;;;;11.15;6.85;;;;;;;0.10;100.00;92421.78;5049814;28;20122;-71
2023/04/13 02:57:34;;;;;;;13.15;9.40;;;;;;;0.07;100.00;92423.84;5050172;28;20049;-71
2023/04/13 03:00:06;;;;;;;12.02;7.78;;;;;;;0.12;100.00;92427.47;5050214;28;20501;-71
2023/04/13 03:02:36;;;;;;;8.82;6.22;;;;;;;0.16;100.00;92425.41;5050382;28;20056;-71
2023/04/13 03:05:04;;;;;;;9.20;7.10;;;;;;;0.22;100.00;92421.41;5050026;28;20144;-70
2023/04/13 03:07:31;;;;;;;13.15;6.60;;;;;;;0.19;100.00;92426.81;5050171;28;20076;-70
2023/04/13 03:10:01;;;;;;;12.38;6.55;;;;;;;0.11;100.00;92408.22;5049826;28;20071;-70
2023/04/13 03:12:29;;;;;;;10.63;6.68;;;;;;;0.26;100.00;92438.63;5047663;28;20095;-70
2023/04/13 03:14:55;;;;;;;10.02;6.45;;;;;;;0.14;100.00;92434.91;5049798;28;20060;-70
2023/04/13 03:17:22;;;;;;;11.15;6.78;;;;;;;0.06;100.00;92432.38;5049869;28;20528;-70
2023/04/13 03:19:50;;;;;;;10.88;7.40;;;;;;;0.02;100.00;92433.66;5050047;28;20053;-70
2023/04/13 03:22:17;;;;;;;10.95;7.28;;;;;;;0.05;100.00;92448.50;5049905;28;20092;-71
2023/04/13 03:24:44;;;;;;;11.93;7.68;;;;;;;0.11;100.00;92432.69;5049347;28;20049;-71
2023/04/13 03:27:12;;;;;;;11.30;7.90;;;;;;;0.18;100.00;92435.34;5049843;28;20045;-71
2023/04/13 03:29:38;;;;;;;13.60;8.75;;;;;;;0.17;100.00;92438.81;5049892;28;20049;-71
2023/04/13 03:32:05;;;;;;;14.40;9.38;;;;;;;0.11;100.00;92443.59;5048223;28;20045;-72
2023/04/13 03:34:32;;;;;;;13.82;8.65;;;;;;;0.15;100.00;92444.03;5049461;28;20049;-71
2023/04/13 03:36:59;;;;;;;17.63;9.80;;;;;;;0.17;100.00;92447.19;5049504;28;20094;-72
2023/04/13 03:39:26;;;;;;;24.48;16.58;;;;;;;-0.27;100.00;92446.69;5048993;28;20053;-71
2023/04/13 03:41:53;;;;;;;18.35;11.52;;;;;;;-0.43;100.00;92429.09;5049341;28;20136;-71
2023/04/13 03:44:21;;;;;;;19.05;11.40;;;;;;;-0.53;100.00;92446.94;5049539;28;20045;-71
2023/04/13 03:46:48;;;;;;;29.52;21.23;;;;;;;-0.84;100.00;92447.59;5048985;28;20505;-71
2023/04/13 03:49:15;;;;;;;19.30;11.68;;;;;;;-0.78;100.00;92446.97;5049557;28;20075;-70
2023/04/13 03:51:42;;;;;;;18.98;12.40;;;;;;;-0.55;100.00;92448.84;5049392;28;20049;-70
2023/04/13 03:54:08;;;;;;;18.30;10.88;;;;;;;-0.44;100.00;92448.50;5048890;28;20048;-71
2023/04/13 03:56:35;;;;;;;24.33;16.15;;;;;;;-0.41;100.00;92447.38;5048971;28;20071;-72
2023/04/13 03:59:02;;;;;;;27.50;16.10;;;;;;;-0.24;100.00;92447.34;5045700;28;20098;-71
2023/04/13 04:01:31;;;;;;;30.90;22.23;;;;;;;-0.31;100.00;92450.53;5048581;28;20092;-71
2023/04/13 04:03:57;;;;;;;25.05;17.13;;;;;;;-0.36;100.00;92445.16;5049063;28;20051;-71
2023/04/13 04:06:25;;;;;;;25.92;18.20;;;;;;;-0.39;100.00;92449.72;5048521;28;20505;-71
2023/04/13 04:08:52;;;;;;;23.23;16.85;;;;;;;-0.39;100.00;92452.25;5048592;28;20040;-71
2023/04/13 04:11:21;;;;;;;29.73;20.13;;;;;;;-0.50;100.00;92445.81;5048512;28;20497;-71
2023/04/13 04:13:47;;;;;;;24.10;17.60;;;;;;;-0.56;100.00;92439.66;5048962;28;20045;-71
2023/04/13 04:16:15;;;;;;;24.70;16.40;;;;;;;-0.50;100.00;92456.72;5049123;28;20053;-71
2023/04/13 04:18:43;;;;;;;25.33;15.05;;;;;;;-0.48;100.00;92452.28;5048454;28;20490;-71
2023/04/13 04:21:11;;;;;;;23.30;14.00;;;;;;;-0.43;100.00;92452.59;5048442;28;20555;-71
2023/04/13 04:23:38;;;;;;;71.15;33.95;;;;;;;-0.41;100.00;92448.16;5048120;28;20052;-71
2023/04/13 04:26:06;;;;;;;22.95;13.80;;;;;;;-0.47;100.00;92461.41;5048636;28;20128;-71
2023/04/13 04:28:37;;;;;;;22.35;13.35;;;;;;;-0.35;100.00;92463.59;5048247;28;20091;-70
2023/04/13 04:31:05;;;;;;;28.70;14.88;;;;;;;-0.25;100.00;92460.88;5048639;28;20057;-70
2023/04/13 04:33:32;;;;;;;28.02;15.43;;;;;;;-0.35;100.00;92474.50;5048335;28;20075;-70
2023/04/13 04:36:00;;;;;;;29.90;16.00;;;;;;;-0.41;100.00;92460.78;5048513;28;20110;-70
2023/04/13 04:38:29;;;;;;;37.45;21.25;;;;;;;-0.34;100.00;92467.69;5045865;28;20059;-71
2023/04/13 04:40:56;;;;;;;34.42;16.67;;;;;;;-0.57;100.00;92470.91;5047902;28;20498;-71
2023/04/13 04:43:24;;;;;;;31.55;14.98;;;;;;;-0.56;100.00;92468.22;5046843;28;20055;-71
2023/04/13 04:45:51;;;;;;;26.75;14.57;;;;;;;-0.59;100.00;92467.75;5048012;28;20594;-71
2023/04/13 04:48:18;;;;;;;29.27;15.13;;;;;;;-0.58;100.00;92476.88;5047899;28;20487;-70
2023/04/13 04:50:45;;;;;;;29.60;15.13;;;;;;;-0.52;100.00;92466.16;5047973;28;20049;-70
2023/04/13 04:53:13;;;;;;;33.47;15.98;;;;;;;-0.25;100.00;92465.94;5047539;28;20045;-70
2023/04/13 04:55:40;;;;;;;34.97;16.20;;;;;;;-0.08;100.00;92467.50;5047812;28;20044;-71
2023/04/13 04:58:07;;;;;;;31.52;13.93;;;;;;;0.02;100.00;92466.50;5047456;28;20095;-71
2023/04/13 05:00:34;;;;;;;28.55;16.30;;;;;;;0.23;100.00;92471.00;5047407;28;20090;-71
2023/04/13 05:03:01;;;;;;;38.33;16.90;;;;;;;0.32;100.00;92437.16;5047973;28;20128;-71
2023/04/13 05:05:29;;;;;;;42.33;16.15;;;;;;;0.65;100.00;92464.00;5047736;28;20084;-71
2023/04/13 05:07:55;;;;;;;41.42;15.90;;;;;;;0.82;100.00;92464.66;5047677;28;20053;-71
2023/04/13 05:10:27;;;;;;;40.60;15.27;;;;;;;1.05;100.00;92463.88;5047823;28;20242;-71
2023/04/13 05:12:53;;;;;;;40.00;16.75;;;;;;;1.49;100.00;92469.19;5047938;28;20122;-70
2023/04/13 05:15:20;;;;;;;42.40;17.08;;;;;;;1.69;100.00;92464.41;5047542;28;20099;-70
2023/04/13 05:17:49;;;;;;;52.05;20.27;;;;;;;1.75;100.00;92465.50;5047644;28;20099;-70
2023/04/13 05:20:16;;;;;;;64.43;27.08;;;;;;;1.72;100.00;92464.09;5047114;28;20531;-70
2023/04/13 05:22:43;;;;;;;62.58;25.67;;;;;;;1.95;100.00;92465.75;5047282;28;20057;-70
2023/04/13 05:25:10;;;;;;;44.80;18.67;;;;;;;1.98;100.00;92447.66;5047609;28;20135;-70
2023/04/13 05:27:38;;;;;;;36.22;18.73;;;;;;;2.33;100.00;92458.03;5047431;28;20048;-70
2023/04/13 05:30:07;;;;;;;40.85;18.50;;;;;;;2.61;100.00;92448.94;5034445;28;20091;-70
2023/04/13 05:32:34;;;;;;;40.03;19.90;;;;;;;2.60;100.00;92445.63;5046859;28;20059;-70
2023/04/13 05:35:01;;;;;;;35.97;18.35;;;;;;;2.51;100.00;92460.16;5039011;28;20494;-69
2023/04/13 05:37:27;;;;;;;38.03;19.10;;;;;;;2.79;100.00;92459.47;5042483;28;20102;-69
2023/04/13 05:39:54;;;;;;;43.38;19.75;;;;;;;2.96;100.00;92456.69;5047172;28;20102;-69
2023/04/13 05:42:21;;;;;;;48.38;20.42;;;;;;;2.93;100.00;92460.38;5047396;28;20118;-69
2023/04/13 05:44:49;;;;;;;59.50;22.65;;;;;;;2.94;100.00;92461.97;5047160;28;20045;-69
2023/04/13 05:47:16;;;;;;;55.42;20.10;;;;;;;2.83;100.00;92448.97;5047455;28;20520;-69
2023/04/13 05:49:42;;;;;;;51.83;19.25;;;;;;;3.02;100.00;92445.03;5047105;28;20045;-69
2023/04/13 05:52:09;;;;;;;48.20;19.63;;;;;;;3.29;100.00;92450.34;5047004;28;20049;-69
2023/04/13 05:54:36;;;;;;;59.33;18.58;;;;;;;3.34;99.57;92431.03;5048326;28;20513;-69
2023/04/13 05:57:03;;;;;;;60.58;20.33;;;;;;;3.64;97.87;92441.97;5051299;28;20385;-69
2023/04/13 05:59:29;;;;;;;51.17;20.08;;;;;;;3.79;97.97;92427.41;5051060;28;20498;-69
2023/04/13 06:01:58;;;;;;;50.83;19.00;;;;;;;4.08;95.51;92430.66;5051332;28;20052;-69
2023/04/13 06:04:25;;;;;;;47.80;18.23;;;;;;;4.29;93.42;92441.72;5050775;28;20048;-68
2023/04/13 06:06:54;;;;;;;56.75;19.70;;;;;;;4.33;93.77;92442.09;5051294;28;20045;-69
2023/04/13 06:09:21;;;;;;;45.40;18.38;;;;;;;4.46;93.94;92433.75;5051217;28;20122;-69
2023/04/13 06:11:48;;;;;;;49.17;20.15;;;;;;;4.82;88.17;92445.41;5051025;28;20064;-69
2023/04/13 06:14:15;;;;;;;41.65;18.58;;;;;;;5.02;88.67;92452.25;5051118;28;20057;-69
2023/04/13 06:16:42;;;;;;;53.00;18.67;;;;;;;5.35;84.78;92441.31;5050716;28;20127;-69
2023/04/13 06:19:12;;;;;;;45.47;18.17;;;;;;;5.81;85.45;92441.47;5050869;28;20052;-69
2023/04/13 06:21:38;;;;;;;49.75;17.65;;;;;;;5.73;82.51;92450.88;5050773;28;20055;-70
2023/04/13 06:24:05;;;;;;;40.58;15.98;;;;;;;5.77;84.17;92443.63;5050553;28;20570;-70
2023/04/13 06:26:33;;;;;;;38.65;16.83;;;;;;;6.04;80.78;92441.06;5037646;28;20098;-70
2023/04/13 06:29:00;;;;;;;46.80;16.35;;;;;;;6.28;82.03;92449.00;5050857;28;20123;-70
2023/04/13 06:31:27;;;;;;;40.47;15.20;;;;;;;6.52;80.71;92444.19;5050793;28;20386;-70
2023/04/13 06:33:54;;;;;;;46.42;16.30;;;;;;;6.82;76.40;92447.00;5049985;28;20131;-70
2023/04/13 06:36:22;;;;;;;47.00;17.50;;;;;;;7.17;78.70;92442.47;5050525;28;21186;-70
2023/04/13 06:38:48;;;;;;;42.33;18.45;;;;;;;7.53;77.02;92433.34;5050601;28;20053;-67
2023/04/13 06:41:15;;;;;;;41.58;18.33;;;;;;;7.92;74.98;92438.28;5037438;28;20102;-67
2023/04/13 06:43:42;;;;;;;36.88;15.27;;;;;;;8.05;70.04;92436.63;5050637;28;20497;-67
2023/04/13 06:46:08;;;;;;;34.05;15.80;;;;;;;8.34;69.73;92439.44;5050420;28;20049;-67
2023/04/13 06:48:35;;;;;;;49.35;18.95;;;;;;;8.54;67.97;92442.59;5049843;28;20053;-67
2023/04/13 06:51:02;;;;;;;51.08;18.42;;;;;;;8.55;70.59;92425.44;5050730;28;20057;-69
2023/04/13 06:53:30;;;;;;;37.60;15.65;;;;;;;9.15;66.87;92428.97;5050050;28;20095;-68
2023/04/13 06:55:57;;;;;;;34.30;12.38;;;;;;;9.57;63.02;92437.59;5050035;28;20049;-68
2023/04/13 06:58:24;;;;;;;51.67;16.42;;;;;;;9.74;65.02;92430.81;5050329;28;20061;-68
2023/04/13 07:00:50;;;;;;;42.33;16.17;;;;;;;10.25;59.83;92429.53;5049988;28;20327;-68
2023/04/13 07:03:17;;;;;;;39.03;12.18;;;;;;;10.78;61.40;92432.09;5049553;28;20049;-68
2023/04/13 07:05:44;;;;;;;5.90;2.83;;;;;;;11.20;52.28;92436.13;5048672;28;20509;-68
2023/04/13 07:08:11;;;;;;;4.88;1.42;;;;;;;11.56;49.18;92435.88;5049855;28;20045;-68
2023/04/13 07:10:39;;;;;;;5.63;1.45;;;;;;;11.84;46.83;92429.88;5049746;28;20041;-68
2023/04/13 07:13:06;;;;;;;5.95;1.70;;;;;;;12.11;47.05;92431.81;5048761;28;20049;-68
2023/04/13 07:15:33;;;;;;;6.40;1.75;;;;;;;12.24;45.36;92432.47;5050029;28;20049;-69
2023/04/13 07:18:00;;;;;;;2.95;1.40;;;;;;;12.48;46.12;92427.06;5049811;28;20065;-68
2023/04/13 07:20:27;;;;;;;4.55;1.38;;;;;;;12.69;44.54;92421.13;5049524;28;20493;-69
2023/04/13 07:22:53;;;;;;;2.97;1.13;;;;;;;12.72;43.89;92422.44;5049812;28;20053;-69
2023/04/13 07:25:20;;;;;;;4.00;1.60;;;;;;;12.78;43.15;92426.63;5049799;28;20045;-69
2023/04/13 07:27:49;;;;;;;5.78;1.67;;;;;;;12.99;44.75;92426.03;5048635;28;20132;-69
2023/04/13 07:30:16;;;;;;;6.40;2.40;;;;;;;13.17;43.57;92420.56;5049806;28;20497;-69
2023/04/13 07:32:43;;;;;;;3.90;1.58;;;;;;;13.40;45.26;92410.16;5049880;28;20444;-69
2023/04/13 07:35:09;;;;;;;3.45;1.50;;;;;;;13.56;43.87;92419.59;5049785;28;20494;-69
2023/04/13 07:37:36;;;;;;;5.22;1.88;;;;;;;13.76;44.14;92418.94;5049558;28;20051;-69
2023/04/13 07:40:04;;;;;;;6.00;2.20;;;;;;;13.98;43.87;92418.03;5049580;28;20190;-69
2023/04/13 07:42:30;;;;;;;5.28;1.40;;;;;;;14.11;42.56;92423.78;5049630;28;20572;-69
2023/04/13 07:44:59;;;;;;;4.15;1.40;;;;;;;14.18;42.77;92415.81;5049044;28;20041;-69
2023/04/13 07:47:25;;;;;;;5.78;1.90;;;;;;;14.31;42.99;92415.38;5036282;28;20049;-69
2023/04/13 07:49:52;;;;;;;3.97;1.50;;;;;;;14.45;41.83;92415.69;5049544;28;20439;-69
2023/04/13 07:52:19;;;;;;;5.10;1.90;;;;;;;14.61;42.16;92419.09;5049753;28;20041;-69
2023/04/13 07:54:46;;;;;;;5.32;1.65;;;;;;;14.72;42.88;92419.13;5049409;28;20464;-69
2023/04/13 07:57:13;;;;;;;3.28;1.38;;;;;;;14.91;40.67;92420.22;5049595;28;20049;-69
2023/04/13 07:59:40;;;;;;;4.18;1.45;;;;;;;14.80;40.76;92400.53;5048769;28;20045;-69
2023/04/13 08:02:08;;;;;;;4.57;1.77;;;;;;;14.81;41.17;92413.22;5046337;28;20053;-70
2023/04/13 08:04:35;;;;;;;5.78;1.58;;;;;;;15.10;42.12;92417.16;5037365;28;20106;-69
2023/04/13 08:07:03;;;;;;;3.63;1.55;;;;;;;15.10;40.26;92417.16;5049095;28;20483;-70
2023/04/13 08:09:35;;;;;;;3.10;1.92;;;;;;;15.14;40.57;92412.25;5048852;28;20048;-69
2023/04/13 08:12:02;;;;;;;4.53;1.58;;;;;;;15.33;40.69;92407.34;5048577;28;20177;-69
2023/04/13 08:14:29;;;;;;;4.65;2.00;;;;;;;15.28;40.04;92413.28;5048640;28;20045;-69
2023/04/13 08:16:56;;;;;;;3.42;1.80;;;;;;;15.39;39.69;92416.66;5048205;28;20390;-68
2023/04/13 08:19:24;;;;;;;7.68;1.65;;;;;;;15.50;41.09;92407.06;5048447;28;20818;-69
2023/04/13 08:21:51;;;;;;;6.28;2.08;;;;;;;15.67;40.38;92401.63;5038785;28;20567;-70
2023/04/13 08:24:19;;;;;;;5.13;1.30;;;;;;;15.77;40.74;92409.38;5048507;28;20123;-69
2023/04/13 08:26:46;;;;;;;4.75;1.80;;;;;;;15.83;40.58;92399.03;5047963;28;20096;-69
2023/04/13 08:29:14;;;;;;;6.30;2.08;;;;;;;15.97;40.26;92404.47;5048138;28;20049;-69
2023/04/13 08:31:41;;;;;;;6.22;1.60;;;;;;;15.93;41.14;92403.44;5048185;28;20410;-69
2023/04/13 08:34:09;;;;;;;4.60;1.73;;;;;;;16.00;40.33;92403.91;5047844;28;20045;-69
2023/04/13 08:36:37;;;;;;;5.30;1.80;;;;;;;15.94;41.06;92400.59;5047418;28;20465;-69
2023/04/13 08:39:04;;;;;;;5.13;1.50;;;;;;;16.09;40.34;92401.56;5047768;28;20098;-69
2023/04/13 08:41:33;;;;;;;7.80;2.22;;;;;;;16.24;41.66;92400.75;5047262;28;20091;-69
2023/04/13 08:44:04;;;;;;;5.35;2.10;;;;;;;16.35;40.76;92394.50;5047726;28;20053;-69
2023/04/13 08:46:32;;;;;;;5.10;1.92;;;;;;;16.48;41.64;92385.34;5048001;28;20041;-69
2023/04/13 08:49:00;;;;;;;5.15;1.88;;;;;;;16.47;40.74;92380.47;5048074;28;20106;-69
2023/04/13 08:51:30;;;;;;;6.05;1.92;;;;;;;16.50;40.76;92385.09;5047338;28;20041;-69
2023/04/13 08:53:58;;;;;;;9.07;1.80;;;;;;;16.54;40.57;92381.69;5047568;28;20527;-69
2023/04/13 08:56:27;;;;;;;9.25;2.05;;;;;;;16.78;39.91;92388.06;5047316;28;20555;-70
2023/04/13 08:58:57;;;;;;;5.07;1.73;;;;;;;16.82;39.55;92382.06;5047311;28;20493;-69
2023/04/13 09:01:25;;;;;;;11.40;2.72;;;;;;;16.85;39.37;92383.34;5047069;28;20094;-69
2023/04/13 09:03:55;;;;;;;4.90;1.88;;;;;;;16.86;40.57;92371.16;5047660;28;20056;-69
2023/04/13 09:06:24;;;;;;;7.03;2.55;;;;;;;17.09;39.92;92386.06;5047630;28;20045;-69
2023/04/13 09:08:52;;;;;;;10.18;2.72;;;;;;;17.05;39.85;92379.91;5047239;28;20431;-70
2023/04/13 09:11:21;;;;;;;4.55;1.85;;;;;;;17.16;39.97;92378.00;5047665;28;20053;-69
2023/04/13 09:13:50;;;;;;;7.88;2.25;;;;;;;17.25;40.34;92369.66;5046901;28;20045;-69
2023/04/13 09:16:18;;;;;;;5.53;1.90;;;;;;;17.17;39.02;92371.00;5047042;28;20076;-69
2023/04/13 09:18:52;;;;;;;4.57;1.58;;;;;;;17.08;40.02;92373.41;5047629;28;20107;-69
2023/04/13 09:21:19;;;;;;;3.42;2.00;;;;;;;17.20;40.37;92363.44;5041036;28;20456;-69
2023/04/13 09:23:56;;;;;;;11.63;2.65;;;;;;;17.28;40.10;92364.69;5047077;28;20078;-69
2023/04/13 09:26:25;;;;;;;5.22;1.70;;;;;;;17.21;39.57;92364.19;5046639;28;20049;-70
2023/04/13 09:28:56;;;;;;;6.32;2.22;;;;;;;17.43;40.64;92363.78;5046257;28;20564;-70
2023/04/13 09:31:23;;;;;;;4.78;1.85;;;;;;;17.66;40.02;92353.69;5033902;28;20110;-70
2023/04/13 09:33:52;;;;;;;4.35;2.05;;;;;;;17.96;39.56;92367.41;5047576;28;20548;-70
2023/04/13 09:36:21;;;;;;;5.63;1.90;;;;;;;17.91;39.63;92338.91;5046637;28;20391;-70
2023/04/13 09:38:51;;;;;;;5.80;1.90;;;;;;;18.23;38.75;92353.13;5047446;28;20049;-71
2023/04/13 09:41:33;;;;;;;5.55;1.80;;;;;;;18.27;39.03;92343.72;5046897;28;20072;-71
2023/04/13 09:44:00;;;;;;;8.55;2.15;;;;;;;18.51;38.35;92349.94;5047264;28;20107;-70
2023/04/13 09:46:27;;;;;;;6.10;1.75;;;;;;;18.54;37.58;92334.56;5047087;28;20477;-70
2023/04/13 09:48:59;;;;;;;6.35;1.65;;;;;;;18.80;37.49;92356.84;5046820;28;20103;-70
2023/04/13 09:51:26;;;;;;;9.82;2.40;;;;;;;18.77;39.12;92352.19;5046552;28;20417;-70
2023/04/13 09:53:54;;;;;;;4.72;1.63;;;;;;;18.95;37.84;92341.03;5046763;28;20051;-71
2023/04/13 09:56:23;;;;;;;7.68;2.30;;;;;;;18.91;37.83;92340.03;5046372;28;20056;-70
2023/04/13 09:58:52;;;;;;;9.70;2.40;;;;;;;18.92;38.26;92338.19;5046614;28;20144;-70
2023/04/13 10:01:19;;;;;;;4.30;1.55;;;;;;;18.98;38.49;92339.66;5046932;28;20071;-70
2023/04/13 10:03:46;;;;;;;6.72;2.08;;;;;;;18.78;37.93;92323.28;5046896;28;20412;-70
2023/04/13 10:06:14;;;;;;;4.15;1.60;;;;;;;18.74;37.60;92332.72;5046804;28;20049;-70
2023/04/13 10:08:41;;;;;;;7.30;2.20;;;;;;;18.87;37.73;92333.06;5046793;28;20088;-70
2023/04/13 10:11:11;;;;;;;10.60;2.58;;;;;;;19.06;38.18;92320.84;5046527;28;20045;-70
2023/04/13 10:13:45;;;;;;;4.85;2.38;;;;;;;19.03;37.66;92318.00;5046787;28;20044;-70
2023/04/13 10:16:29;;;;;;;4.50;1.85;;;;;;;18.93;37.31;92300.72;5046361;28;20055;-70
2023/04/13 10:19:00;;;;;;;6.28;2.50;;;;;;;19.28;38.15;92319.44;5046926;28;20076;-70
2023/04/13 10:21:32;;;;;;;5.65;2.42;;;;;;;19.47;37.67;92318.63;5046826;28;20048;-70
2023/04/13 10:23:59;;;;;;;6.28;2.03;;;;;;;19.56;36.87;92327.31;5046468;28;20053;-71
2023/04/13 10:26:32;;;;;;;7.03;2.35;;;;;;;19.65;37.11;92313.63;5045717;28;20090;-70
2023/04/13 10:29:00;;;;;;;5.30;2.30;;;;;;;19.79;37.05;92319.63;5046718;28;20444;-70
2023/04/13 10:31:37;;;;;;;9.25;2.50;;;;;;;19.85;37.15;92325.50;5032883;28;20124;-70
2023/04/13 10:34:05;;;;;;;7.63;2.10;;;;;;;20.01;36.08;92318.22;5046707;28;20044;-71
2023/04/13 10:36:39;;;;;;;8.02;1.90;;;;;;;20.02;36.26;92307.50;5046427;28;20080;-70
2023/04/13 10:39:07;;;;;;;7.65;2.20;;;;;;;20.11;36.94;92289.34;5045979;28;20498;-71
2023/04/13 10:41:34;;;;;;;6.82;2.22;;;;;;;20.25;36.35;92301.56;5035205;28;20053;-71
2023/04/13 10:44:01;;;;;;;6.22;2.50;;;;;;;20.28;36.33;92296.53;5049795;28;20045;-70
2023/04/13 10:46:28;;;;;;;7.65;2.08;;;;;;;20.07;36.38;92300.63;5036398;28;20515;-71
2023/04/13 10:48:58;;;;;;;6.22;2.28;;;;;;;20.18;36.46;92296.00;5049969;28;20049;-71
2023/04/13 10:51:26;;;;;;;9.32;2.30;;;;;;;20.14;36.16;92296.56;5049735;28;20501;-70
2023/04/13 10:53:53;;;;;;;5.70;1.83;;;;;;;20.21;35.64;92301.38;5049641;28;20049;-71
2023/04/13 10:56:20;;;;;;;7.22;2.05;;;;;;;20.06;36.32;92304.28;5049804;28;20114;-70
2023/04/13 10:58:52;;;;;;;4.45;1.65;;;;;;;19.88;35.68;92297.06;5048085;28;20049;-71
2023/04/13 11:01:19;;;;;;;6.05;2.30;;;;;;;20.07;35.93;92290.97;5049704;28;20049;-71
2023/04/13 11:03:47;;;;;;;11.20;2.55;;;;;;;20.03;35.49;92295.22;5048375;28;20509;-71
2023/04/13 11:06:16;;;;;;;6.45;1.90;;;;;;;19.89;36.11;92279.56;5049804;28;20444;-71
2023/04/13 11:08:43;;;;;;;7.03;2.00;;;;;;;19.88;37.14;92281.41;5049061;28;20044;-70
2023/04/13 11:11:11;;;;;;;7.55;1.75;;;;;;;19.81;35.23;92286.22;5049895;28;20047;-71
2023/04/13 11:13:44;;;;;;;5.03;2.42;;;;;;;19.73;35.68;92279.09;5049500;28;20045;-71
2023/04/13 11:16:12;;;;;;;5.70;1.88;;;;;;;19.90;36.24;92279.28;5049783;28;20081;-70
2023/04/13 11:18:39;;;;;;;7.10;2.10;;;;;;;19.91;36.61;92274.84;5049827;28;20075;-71
2023/04/13 11:21:15;;;;;;;3.70;1.40;;;;;;;20.16;36.88;92278.03;5049372;28;20044;-71
2023/04/13 11:23:42;;;;;;;6.20;1.80;;;;;;;20.08;36.05;92276.88;5049029;28;20059;-71
2023/04/13 11:26:09;;;;;;;13.90;1.90;;;;;;;20.27;36.34;92283.81;5049133;28;20501;-71
2023/04/13 11:28:39;;;;;;;4.00;1.52;;;;;;;20.36;35.44;92284.66;5049814;28;20414;-71